Time;durP1;ratioP1;P1;durP2;ratioP2;P2;SDS_P1;SDS_P2;PMS_P1;PMS_P2;Temp;Humidity;BMP_temperature;BMP_pressure;BME280_temperature;BME280_humidity;BME280_pressure;Samples;Min_cycle;Max_cycle;Signal;HPM_P1;HPM_P2
2022/02/23 00:02:14;;;;;;;21.30;20.30;;;18.50;63.20;;;;;;5030835;28;20978;-46
2022/02/23 00:04:41;;;;;;;21.17;20.27;;;18.40;64.00;;;;;;5031318;28;20452;-46
2022/02/23 00:07:07;;;;;;;21.90;20.90;;;18.30;65.10;;;;;;5027966;28;20446;-50
2022/02/23 00:09:34;;;;;;;20.93;20.03;;;18.30;64.90;;;;;;5011377;28;20446;-52
2022/02/23 00:12:02;;;;;;;21.87;20.77;;;18.30;65.20;;;;;;5011333;28;20489;-46
2022/02/23 00:14:29;;;;;;;21.57;20.57;;;18.20;65.70;;;;;;5014923;28;20725;-49
2022/02/23 00:16:56;;;;;;;21.53;20.53;;;18.10;66.00;;;;;;5029300;28;20473;-46
2022/02/23 00:19:23;;;;;;;21.43;20.43;;;18.10;66.40;;;;;;5034422;28;20449;-46
2022/02/23 00:21:49;;;;;;;21.00;20.10;;;18.10;66.70;;;;;;5034424;28;20479;-46
2022/02/23 00:24:16;;;;;;;20.70;19.80;;;18.10;67.10;;;;;;5027752;28;20442;-46
2022/02/23 00:26:43;;;;;;;21.67;20.67;;;18.00;67.10;;;;;;5014715;28;20449;-49
2022/02/23 00:29:11;;;;;;;22.00;21.00;;;18.00;67.50;;;;;;5014363;28;20546;-46
2022/02/23 00:31:38;;;;;;;21.37;20.37;;;18.00;67.80;;;;;;5014512;28;20524;-47
2022/02/23 00:34:04;;;;;;;21.73;20.73;;;18.00;68.20;;;;;;5018892;28;20455;-51
2022/02/23 00:36:31;;;;;;;21.53;20.50;;;18.10;68.40;;;;;;5034174;28;20485;-49
2022/02/23 00:38:58;;;;;;;21.23;20.20;;;18.10;68.60;;;;;;5033963;28;20457;-49
2022/02/23 00:41:25;;;;;;;21.10;20.13;;;18.10;68.70;;;;;;5034071;28;20472;-50
2022/02/23 00:43:51;;;;;;;21.67;20.70;;;18.10;68.70;;;;;;5031227;28;20460;-46
2022/02/23 00:46:19;;;;;;;21.50;20.60;;;18.10;69.00;;;;;;5014306;28;20443;-48
2022/02/23 00:48:46;;;;;;;21.87;20.90;;;18.00;69.10;;;;;;5014184;28;21129;-46
2022/02/23 00:51:13;;;;;;;21.10;20.20;;;18.00;69.40;;;;;;5039614;22;20517;-44
2022/02/23 00:53:40;;;;;;;21.70;20.70;;;18.00;69.70;;;;;;5032840;28;20472;-45
2022/02/23 00:56:07;;;;;;;21.67;20.47;;;18.00;69.80;;;;;;5033456;28;21023;-46
2022/02/23 00:58:33;;;;;;;21.37;20.37;;;17.90;70.00;;;;;;5033570;28;20449;-44
2022/02/23 01:01:00;;;;;;;21.60;20.70;;;17.90;70.20;;;;;;5033557;28;20452;-45
2022/02/23 01:03:28;;;;;;;21.27;20.27;;;17.90;70.50;;;;;;5033575;28;20461;-45
2022/02/23 01:05:55;;;;;;;21.67;20.47;;;17.90;70.70;;;;;;5033377;28;20446;-44
2022/02/23 01:08:22;;;;;;;21.43;20.33;;;17.80;70.90;;;;;;5033313;28;20448;-45
2022/02/23 01:10:49;;;;;;;21.60;20.57;;;17.80;71.40;;;;;;5033504;28;20457;-45
2022/02/23 01:13:15;;;;;;;21.17;20.27;;;17.80;71.60;;;;;;5033368;28;20466;-45
2022/02/23 01:15:42;;;;;;;21.43;20.50;;;17.80;71.90;;;;;;5033116;28;20481;-45
2022/02/23 01:18:09;;;;;;;20.80;19.90;;;17.80;72.00;;;;;;5033067;28;20477;-44
2022/02/23 01:20:37;;;;;;;21.60;20.67;;;17.70;72.30;;;;;;5033363;28;20445;-44
2022/02/23 01:23:04;;;;;;;21.37;20.37;;;17.70;72.70;;;;;;5032793;28;20833;-44
2022/02/23 01:25:32;;;;;;;20.80;19.90;;;17.70;73.20;;;;;;5032954;28;20809;-44
2022/02/23 01:28:01;;;;;;;20.90;20.00;;;17.60;73.60;;;;;;5032832;28;20453;-44
2022/02/23 01:30:28;;;;;;;21.40;20.30;;;17.60;73.80;;;;;;5033090;28;20528;-45
2022/02/23 01:32:55;;;;;;;21.30;20.30;;;17.50;74.00;;;;;;5033053;28;20470;-44
2022/02/23 01:35:22;;;;;;;21.17;20.27;;;17.60;74.30;;;;;;5032738;28;20471;-44
2022/02/23 01:37:51;;;;;;;21.70;20.70;;;17.50;75.30;;;;;;5032845;28;20440;-45
2022/02/23 01:40:19;;;;;;;21.50;20.50;;;17.50;75.00;;;;;;5032882;28;20456;-45
2022/02/23 01:42:45;;;;;;;21.77;20.50;;;17.50;75.30;;;;;;5032938;28;21178;-44
2022/02/23 01:45:12;;;;;;;21.50;20.50;;;17.40;75.80;;;;;;5032516;28;20450;-45
2022/02/23 01:47:39;;;;;;;21.13;20.23;;;17.40;76.20;;;;;;5032815;28;20814;-44
2022/02/23 01:50:08;;;;;;;21.93;20.93;;;17.40;76.50;;;;;;5032360;28;20445;-44
2022/02/23 01:52:35;;;;;;;22.07;20.63;;;17.30;76.90;;;;;;5032321;28;20487;-46
2022/02/23 01:55:04;;;;;;;21.50;20.53;;;17.30;77.70;;;;;;5032684;28;20448;-48
2022/02/23 01:57:31;;;;;;;21.40;20.40;;;17.20;78.10;;;;;;5032599;28;20488;-45
2022/02/23 01:59:57;;;;;;;21.90;20.90;;;17.20;78.50;;;;;;5032247;28;20445;-44
2022/02/23 02:02:26;;;;;;;21.83;20.83;;;17.20;79.00;;;;;;5032207;28;20561;-44
2022/02/23 02:04:53;;;;;;;21.63;20.63;;;17.20;79.40;;;;;;5032522;28;20834;-46
2022/02/23 02:07:20;;;;;;;21.60;20.60;;;17.10;79.70;;;;;;5032395;28;20923;-44
2022/02/23 02:09:46;;;;;;;21.00;20.10;;;17.10;80.30;;;;;;5032146;28;20452;-47
2022/02/23 02:12:14;;;;;;;22.00;21.00;;;17.10;80.30;;;;;;5032117;28;20472;-44
2022/02/23 02:14:41;;;;;;;21.73;20.73;;;17.10;80.30;;;;;;5032314;28;20441;-46
2022/02/23 02:17:08;;;;;;;21.20;20.20;;;17.10;80.30;;;;;;5031930;28;20491;-47
2022/02/23 02:19:35;;;;;;;21.43;20.43;;;17.20;80.30;;;;;;5031580;28;20446;-45
2022/02/23 02:22:05;;;;;;;21.23;20.27;;;17.10;80.50;;;;;;5031905;28;20465;-45
2022/02/23 02:24:33;;;;;;;21.60;20.47;;;17.10;81.00;;;;;;5032248;28;20450;-44
2022/02/23 02:27:02;;;;;;;21.30;20.40;;;17.00;81.50;;;;;;5032140;28;20445;-46
2022/02/23 02:29:29;;;;;;;21.23;20.23;;;17.00;82.30;;;;;;5031540;28;20450;-45
2022/02/23 02:31:56;;;;;;;21.30;20.40;;;16.90;83.10;;;;;;5031720;28;20473;-45
2022/02/23 02:34:23;;;;;;;21.10;20.20;;;16.90;83.80;;;;;;5031919;28;20441;-45
2022/02/23 02:36:50;;;;;;;21.20;20.30;;;16.90;84.20;;;;;;5031158;28;20480;-44
2022/02/23 02:39:20;;;;;;;21.20;20.30;;;16.90;84.40;;;;;;5031387;28;20438;-45
2022/02/23 02:41:47;;;;;;;21.77;20.77;;;16.90;84.10;;;;;;5031833;28;20997;-43
2022/02/23 02:44:15;;;;;;;20.90;20.00;;;17.00;84.20;;;;;;5031752;28;20456;-45
2022/02/23 02:46:42;;;;;;;20.87;19.87;;;16.90;84.90;;;;;;5031887;28;20953;-44
2022/02/23 02:49:11;;;;;;;22.00;20.70;;;16.80;85.20;;;;;;5031362;28;20441;-44
2022/02/23 02:51:38;;;;;;;21.37;20.37;;;16.80;86.00;;;;;;5031623;28;20477;-44
2022/02/23 02:54:06;;;;;;;20.70;19.80;;;16.90;85.80;;;;;;5031809;28;20445;-45
2022/02/23 02:56:35;;;;;;;21.10;20.10;;;16.80;85.70;;;;;;5031551;28;20481;-45
2022/02/23 02:59:02;;;;;;;22.27;21.27;;;16.80;86.20;;;;;;5031093;28;20449;-44
2022/02/23 03:01:30;;;;;;;21.33;20.33;;;16.80;86.70;;;;;;5031341;28;20561;-46
2022/02/23 03:03:57;;;;;;;21.30;20.30;;;16.80;86.70;;;;;;5031626;28;20455;-46
2022/02/23 03:06:25;;;;;;;22.00;21.00;;;16.80;87.20;;;;;;5031582;28;20437;-46
2022/02/23 03:08:54;;;;;;;21.40;20.30;;;16.80;86.90;;;;;;5031103;28;20532;-44
2022/02/23 03:11:21;;;;;;;21.33;20.30;;;16.80;87.20;;;;;;5031531;28;20455;-44
2022/02/23 03:13:49;;;;;;;21.33;20.33;;;16.80;86.90;;;;;;5031540;28;20935;-45
2022/02/23 03:16:16;;;;;;;21.37;20.47;;;16.80;86.40;;;;;;5031599;28;21028;-46
2022/02/23 03:18:43;;;;;;;21.40;20.40;;;16.70;87.60;;;;;;5031116;28;20879;-44
2022/02/23 03:21:11;;;;;;;21.23;20.23;;;16.70;88.20;;;;;;5031567;28;20449;-45
2022/02/23 03:23:38;;;;;;;22.10;21.03;;;16.80;87.80;;;;;;5031463;28;20781;-44
2022/02/23 03:26:06;;;;;;;21.07;20.17;;;16.80;87.80;;;;;;5031406;28;20457;-47
2022/02/23 03:28:34;;;;;;;21.60;20.60;;;16.70;88.40;;;;;;5030808;28;20495;-45
2022/02/23 03:31:03;;;;;;;20.90;20.00;;;16.70;88.80;;;;;;5031229;28;20550;-44
2022/02/23 03:33:32;;;;;;;20.90;19.83;;;16.60;89.20;;;;;;5031252;28;20465;-44
2022/02/23 03:35:59;;;;;;;20.40;19.50;;;16.60;89.40;;;;;;5031345;28;20453;-46
2022/02/23 03:38:25;;;;;;;21.47;20.47;;;16.60;89.70;;;;;;5030828;28;20481;-45
2022/02/23 03:40:52;;;;;;;21.30;20.10;;;16.60;89.80;;;;;;5031214;28;20449;-44
2022/02/23 03:43:19;;;;;;;20.90;20.00;;;16.50;90.10;;;;;;5031143;28;20997;-45
2022/02/23 03:45:46;;;;;;;21.10;19.93;;;16.50;90.30;;;;;;5031275;28;20449;-44
2022/02/23 03:48:14;;;;;;;21.43;20.50;;;16.50;90.30;;;;;;5034404;28;20445;-45
2022/02/23 03:50:41;;;;;;;20.80;19.90;;;16.50;90.20;;;;;;5034790;28;20453;-45
2022/02/23 03:53:07;;;;;;;21.43;20.43;;;16.50;90.40;;;;;;5034877;28;20477;-46
2022/02/23 03:55:35;;;;;;;21.13;20.20;;;16.60;90.50;;;;;;5034824;28;20807;-44
2022/02/23 03:58:02;;;;;;;20.97;19.97;;;16.60;90.40;;;;;;5034672;28;20485;-45
2022/02/23 04:00:28;;;;;;;20.80;19.90;;;16.60;90.60;;;;;;5034615;28;20453;-46
2022/02/23 04:02:55;;;;;;;21.00;20.10;;;16.60;90.70;;;;;;5034846;28;20465;-43
2022/02/23 04:05:23;;;;;;;21.10;20.20;;;16.70;90.50;;;;;;5034699;28;20811;-44
2022/02/23 04:07:50;;;;;;;20.60;19.70;;;16.60;90.50;;;;;;5034522;28;20953;-46
2022/02/23 04:10:19;;;;;;;21.80;20.80;;;16.60;90.70;;;;;;5034300;28;20449;-44
2022/02/23 04:12:46;;;;;;;21.47;20.47;;;16.60;90.90;;;;;;5034610;28;20475;-44
2022/02/23 04:15:13;;;;;;;21.10;20.20;;;16.60;91.00;;;;;;5034633;28;20480;-45
2022/02/23 04:17:40;;;;;;;21.73;20.73;;;16.60;90.90;;;;;;5034312;28;20508;-43
2022/02/23 04:20:08;;;;;;;21.60;20.50;;;16.60;91.00;;;;;;5034162;28;20500;-45
2022/02/23 04:22:36;;;;;;;21.13;20.03;;;16.60;91.30;;;;;;5034391;28;20476;-44
2022/02/23 04:25:04;;;;;;;21.03;20.13;;;16.60;91.20;;;;;;5034051;28;20456;-46
2022/02/23 04:27:30;;;;;;;21.40;20.33;;;16.60;91.40;;;;;;5034261;28;20441;-45
2022/02/23 04:29:57;;;;;;;22.07;21.07;;;16.60;91.60;;;;;;5033923;28;20458;-44
2022/02/23 04:32:24;;;;;;;21.27;20.37;;;16.60;91.50;;;;;;5033884;28;20493;-45
2022/02/23 04:34:53;;;;;;;20.77;19.87;;;16.50;91.80;;;;;;5034148;28;20958;-45
2022/02/23 04:37:20;;;;;;;20.90;20.00;;;16.60;91.90;;;;;;5034200;28;20576;-43
2022/02/23 04:39:48;;;;;;;21.60;20.43;;;16.60;91.60;;;;;;5033627;28;20973;-44
2022/02/23 04:42:15;;;;;;;20.90;20.00;;;16.70;91.40;;;;;;5034069;28;20465;-44
2022/02/23 04:44:41;;;;;;;21.30;20.30;;;16.60;91.60;;;;;;5034006;28;20454;-43
2022/02/23 04:47:08;;;;;;;20.70;19.80;;;16.50;91.90;;;;;;5033989;28;20444;-45
2022/02/23 04:49:35;;;;;;;21.33;20.10;;;16.50;91.90;;;;;;5033501;28;20468;-45
2022/02/23 04:52:02;;;;;;;21.10;20.10;;;16.60;91.90;;;;;;5033574;28;20480;-45
2022/02/23 04:54:28;;;;;;;20.70;19.80;;;16.50;92.10;;;;;;5033883;28;20482;-45
2022/02/23 04:56:57;;;;;;;20.73;19.83;;;16.50;92.20;;;;;;5033796;28;20476;-43
2022/02/23 04:59:23;;;;;;;21.60;20.60;;;16.50;92.40;;;;;;5032455;28;20445;-45
2022/02/23 05:01:50;;;;;;;23.10;21.60;;;16.40;92.80;;;;;;5033588;28;20519;-44
2022/02/23 05:04:18;;;;;;;24.00;22.00;;;16.60;93.00;;;;;;5033634;28;20464;-44
2022/02/23 05:06:45;;;;;;;22.27;21.10;;;16.60;92.90;;;;;;5033583;28;20867;-45
2022/02/23 05:09:12;;;;;;;22.10;20.90;;;16.50;93.20;;;;;;5032954;28;20442;-44
2022/02/23 05:11:39;;;;;;;23.50;22.07;;;16.60;93.10;;;;;;5033038;28;20461;-44
2022/02/23 05:14:07;;;;;;;22.93;21.30;;;16.50;93.30;;;;;;5033464;28;20815;-45
2022/02/23 05:16:34;;;;;;;22.07;20.97;;;16.50;93.60;;;;;;5033300;28;20450;-45
2022/02/23 05:19:00;;;;;;;22.10;20.90;;;16.50;93.50;;;;;;5032806;28;20445;-45
2022/02/23 05:21:27;;;;;;;22.57;21.07;;;16.50;93.60;;;;;;5032653;28;20452;-45
2022/02/23 05:23:54;;;;;;;21.67;20.57;;;16.50;93.50;;;;;;5033314;28;20448;-47
2022/02/23 05:26:21;;;;;;;26.70;22.50;;;16.50;93.50;;;;;;5033297;28;20802;-46
2022/02/23 05:28:47;;;;;;;26.13;23.43;;;16.60;99.90;;;;;;5032679;28;20793;-44
2022/02/23 05:31:15;;;;;;;33.37;22.40;;;16.70;99.90;;;;;;5032868;28;20449;-43
2022/02/23 05:33:42;;;;;;;26.60;20.80;;;16.80;99.90;;;;;;5033203;28;20892;-44
2022/02/23 05:36:09;;;;;;;23.37;19.90;;;16.90;99.90;;;;;;5032788;28;20445;-45
2022/02/23 05:38:35;;;;;;;32.43;16.80;;;16.90;99.90;;;;;;5032638;28;20492;-43
2022/02/23 05:41:03;;;;;;;24.70;16.60;;;17.00;99.90;;;;;;5032989;28;20449;-45
2022/02/23 05:43:31;;;;;;;40.63;17.07;;;17.10;99.90;;;;;;5032782;28;20469;-43
2022/02/23 05:45:58;;;;;;;27.70;12.90;;;17.10;99.90;;;;;;5032366;28;20503;-44
2022/02/23 05:48:26;;;;;;;27.07;14.50;;;17.10;99.90;;;;;;5022704;28;20434;-46
2022/02/23 05:50:53;;;;;;;32.33;17.87;;;17.00;99.90;;;;;;5032612;28;20456;-49
2022/02/23 05:53:19;;;;;;;31.37;21.37;;;17.60;99.90;;;;;;5032550;28;20477;-42
2022/02/23 05:55:46;;;;;;;24.67;21.43;;;18.10;99.90;;;;;;5032271;28;20456;-41
2022/02/23 05:58:13;;;;;;;22.00;19.80;;;18.40;99.90;;;;;;5032337;28;20485;-41
2022/02/23 06:00:40;;;;;;;23.23;20.87;;;18.50;99.90;;;;;;5032636;28;21090;-41
2022/02/23 06:03:10;;;;;;;28.87;26.03;;;18.70;99.90;;;;;;5032472;28;20461;-42
2022/02/23 06:05:38;;;;;;;25.90;23.23;;;18.90;99.90;;;;;;5032355;28;20450;-41
2022/02/23 06:08:05;;;;;;;24.60;22.47;;;18.90;99.90;;;;;;5032185;28;20477;-42
2022/02/23 06:10:32;;;;;;;26.10;23.90;;;19.10;99.90;;;;;;5032337;28;20445;-41
2022/02/23 06:12:59;;;;;;;24.17;22.40;;;19.10;99.90;;;;;;5032208;28;20469;-41
2022/02/23 06:15:25;;;;;;;29.90;27.87;;;19.20;99.90;;;;;;5032435;28;20449;-45
2022/02/23 06:17:52;;;;;;;31.73;29.53;;;19.20;99.90;;;;;;5031929;28;20835;-42
2022/02/23 06:20:19;;;;;;;35.23;32.43;;;19.30;99.90;;;;;;5032028;28;20445;-41
2022/02/23 06:22:47;;;;;;;32.57;29.93;;;19.30;99.90;;;;;;5032048;28;20830;-41
2022/02/23 06:25:14;;;;;;;31.87;28.70;;;19.30;99.90;;;;;;5032244;28;20531;-42
2022/02/23 06:27:43;;;;;;;29.30;27.17;;;19.40;99.90;;;;;;5032043;28;20784;-42
2022/02/23 06:30:10;;;;;;;33.63;31.00;;;19.30;99.90;;;;;;5031834;28;20453;-41
2022/02/23 06:32:37;;;;;;;31.87;29.13;;;19.40;99.90;;;;;;5031932;28;20461;-41
2022/02/23 06:35:04;;;;;;;30.00;27.77;;;19.40;99.90;;;;;;5031880;28;20449;-41
2022/02/23 06:37:31;;;;;;;30.27;28.57;;;19.40;99.90;;;;;;5031815;28;20477;-42
2022/02/23 06:39:59;;;;;;;34.17;30.87;;;19.40;99.90;;;;;;5031669;28;20898;-41
2022/02/23 06:42:28;;;;;;;34.70;31.70;;;19.40;99.90;;;;;;5031844;28;20900;-42
2022/02/23 06:44:55;;;;;;;31.67;29.67;;;19.40;99.90;;;;;;5031862;28;20453;-41
2022/02/23 06:47:22;;;;;;;30.50;28.47;;;19.40;99.90;;;;;;5031849;28;20523;-41
2022/02/23 06:49:48;;;;;;;31.03;29.03;;;19.40;99.90;;;;;;5031414;28;20449;-41
2022/02/23 06:52:18;;;;;;;31.50;29.30;;;19.40;99.90;;;;;;5032149;28;20488;-40
2022/02/23 06:54:44;;;;;;;34.73;32.80;;;19.40;99.90;;;;;;5031586;28;20453;-40
2022/02/23 06:57:13;;;;;;;30.40;27.90;;;19.40;99.90;;;;;;5031557;28;20815;-40
2022/02/23 06:59:40;;;;;;;30.03;28.23;;;19.40;99.90;;;;;;5031390;28;20449;-40
2022/02/23 07:02:07;;;;;;;31.47;29.70;;;19.40;99.90;;;;;;5031560;28;20816;-40
2022/02/23 07:04:34;;;;;;;37.37;35.20;;;19.40;99.90;;;;;;5031409;28;20456;-40
2022/02/23 07:07:00;;;;;;;34.87;32.60;;;19.30;99.90;;;;;;5031566;28;20450;-42
2022/02/23 07:09:27;;;;;;;31.53;29.73;;;19.30;99.90;;;;;;5031358;28;20441;-40
2022/02/23 07:11:54;;;;;;;31.40;29.30;;;19.30;99.90;;;;;;5031401;28;20473;-40
2022/02/23 07:14:22;;;;;;;30.03;28.17;;;19.30;99.90;;;;;;5031611;28;20525;-40
2022/02/23 07:16:49;;;;;;;28.83;27.13;;;19.20;99.90;;;;;;5031515;28;20453;-40
2022/02/23 07:19:17;;;;;;;32.50;30.33;;;19.20;99.90;;;;;;5031181;28;20492;-40
2022/02/23 07:21:44;;;;;;;32.07;30.23;;;19.30;99.90;;;;;;5032385;28;20465;-42
2022/02/23 07:24:11;;;;;;;30.00;28.40;;;19.20;99.60;;;;;;5035468;28;20444;-41
2022/02/23 07:26:37;;;;;;;31.17;29.50;;;19.20;99.40;;;;;;5035420;28;20449;-42
2022/02/23 07:29:04;;;;;;;29.10;27.47;;;19.20;99.10;;;;;;5035364;28;20437;-40
2022/02/23 07:31:32;;;;;;;32.73;30.90;;;19.20;98.90;;;;;;5035186;28;20465;-40
2022/02/23 07:34:00;;;;;;;29.83;27.93;;;19.20;98.70;;;;;;5035300;28;20456;-40
2022/02/23 07:36:27;;;;;;;32.37;30.60;;;19.10;98.40;;;;;;5035280;28;20822;-42
2022/02/23 07:38:53;;;;;;;29.73;28.03;;;19.10;98.20;;;;;;5034968;28;20503;-40
2022/02/23 07:41:23;;;;;;;33.70;32.00;;;19.10;97.90;;;;;;5035039;28;20452;-42
2022/02/23 07:43:50;;;;;;;32.60;30.73;;;19.10;97.70;;;;;;5035098;28;20449;-40
2022/02/23 07:46:17;;;;;;;29.97;28.40;;;19.10;97.40;;;;;;5034929;28;20970;-41
2022/02/23 07:48:47;;;;;;;30.73;29.00;;;19.10;97.20;;;;;;5034812;28;20532;-40
2022/02/23 07:51:14;;;;;;;31.60;29.93;;;19.00;96.90;;;;;;5034792;28;20445;-40
2022/02/23 07:53:41;;;;;;;28.20;26.80;;;19.10;96.70;;;;;;5035017;28;20441;-40
2022/02/23 07:56:08;;;;;;;31.90;30.13;;;19.00;96.40;;;;;;5035024;28;20526;-40
2022/02/23 07:58:35;;;;;;;33.97;32.23;;;19.00;96.10;;;;;;5034518;28;20508;-41
2022/02/23 08:01:02;;;;;;;34.13;32.53;;;19.00;96.00;;;;;;5034735;28;20452;-40
2022/02/23 08:03:29;;;;;;;30.63;29.10;;;19.00;95.80;;;;;;5034747;28;20970;-40
2022/02/23 08:05:57;;;;;;;28.67;27.07;;;19.00;95.60;;;;;;5034709;28;20532;-40
2022/02/23 08:08:24;;;;;;;31.53;29.63;;;18.90;95.40;;;;;;5034407;28;20862;-40
2022/02/23 08:10:50;;;;;;;35.27;33.37;;;18.90;95.20;;;;;;5034701;28;20512;-40
2022/02/23 08:13:17;;;;;;;33.43;31.63;;;18.90;95.10;;;;;;5034501;28;20469;-40
2022/02/23 08:21:17;;;;;;;32.60;31.00;;;18.60;95.00;;;;;;5034320;28;20425;-43
2022/02/23 08:23:45;;;;;;;32.57;31.00;;;18.50;95.40;;;;;;5034403;28;20792;-40
2022/02/23 08:26:12;;;;;;;29.03;27.60;;;18.50;95.60;;;;;;5034453;28;20480;-40
2022/02/23 08:28:39;;;;;;;31.03;29.50;;;18.60;95.30;;;;;;5034145;28;20445;-40
2022/02/23 08:31:07;;;;;;;28.77;27.17;;;18.70;94.90;;;;;;5034260;28;20837;-40
2022/02/23 08:33:33;;;;;;;29.80;28.30;;;18.80;94.50;;;;;;5033072;28;20807;-40
2022/02/23 08:36:00;;;;;;;30.30;28.63;;;18.90;94.00;;;;;;5034068;28;20947;-40
2022/02/23 08:38:28;;;;;;;31.03;29.53;;;19.00;93.50;;;;;;5033909;28;20485;-40
2022/02/23 08:40:55;;;;;;;30.10;28.60;;;19.00;92.90;;;;;;5034030;28;20444;-40
2022/02/23 08:43:22;;;;;;;29.93;28.23;;;19.00;92.50;;;;;;5033956;28;20473;-40
2022/02/23 08:45:49;;;;;;;28.27;26.87;;;19.10;92.10;;;;;;5033979;28;20865;-40
2022/02/23 08:48:15;;;;;;;28.23;26.80;;;19.10;91.70;;;;;;5033847;28;20927;-40
2022/02/23 08:50:42;;;;;;;28.77;27.20;;;19.10;91.30;;;;;;5033812;28;20788;-42
2022/02/23 08:53:09;;;;;;;29.63;28.13;;;19.10;91.00;;;;;;5033655;28;20473;-40
2022/02/23 08:55:37;;;;;;;28.00;26.70;;;19.20;90.70;;;;;;5033909;28;20456;-40
2022/02/23 08:58:05;;;;;;;29.13;27.33;;;19.20;90.40;;;;;;5033545;28;20477;-40
2022/02/23 09:00:32;;;;;;;25.03;23.63;;;19.10;90.00;;;;;;5033714;28;20454;-40
2022/02/23 09:02:59;;;;;;;24.10;22.90;;;19.20;89.90;;;;;;5033655;28;20491;-41
2022/02/23 09:05:26;;;;;;;25.17;23.87;;;19.20;89.20;;;;;;5033614;28;20441;-43
2022/02/23 09:07:53;;;;;;;27.70;25.97;;;19.20;88.80;;;;;;5033499;28;20463;-41
2022/02/23 09:10:19;;;;;;;24.37;23.17;;;19.10;88.00;;;;;;5033637;28;20438;-41
2022/02/23 09:12:48;;;;;;;26.60;25.10;;;19.10;87.40;;;;;;5033469;28;20466;-40
2022/02/23 09:15:15;;;;;;;23.53;22.23;;;19.10;87.20;;;;;;5033437;28;20453;-41
2022/02/23 09:17:42;;;;;;;22.80;21.67;;;19.10;86.80;;;;;;5033431;28;20467;-40
2022/02/23 09:20:10;;;;;;;24.40;23.10;;;19.10;86.20;;;;;;5033206;28;20489;-40
2022/02/23 09:22:37;;;;;;;24.70;23.50;;;19.10;85.80;;;;;;5033327;28;20476;-40
2022/02/23 09:25:04;;;;;;;25.57;24.13;;;19.10;85.00;;;;;;5033293;28;20451;-41
2022/02/23 09:27:31;;;;;;;24.83;23.63;;;19.10;84.60;;;;;;5033139;28;20449;-40
2022/02/23 09:29:59;;;;;;;24.90;23.70;;;19.10;84.00;;;;;;5032902;28;20923;-41
2022/02/23 09:32:26;;;;;;;24.30;23.10;;;19.10;83.90;;;;;;5033085;28;20468;-40
2022/02/23 09:34:53;;;;;;;25.17;23.87;;;19.10;83.20;;;;;;5032789;28;20441;-40
2022/02/23 09:37:19;;;;;;;25.30;23.93;;;19.10;82.60;;;;;;5032957;28;20955;-40
2022/02/23 09:39:46;;;;;;;24.83;23.53;;;19.10;82.10;;;;;;5032642;28;20854;-40
2022/02/23 09:42:13;;;;;;;25.30;24.00;;;19.10;81.60;;;;;;5032867;28;20477;-40
2022/02/23 09:44:41;;;;;;;23.97;22.67;;;19.10;81.30;;;;;;5032650;28;20871;-45
2022/02/23 09:47:10;;;;;;;24.93;23.53;;;19.10;80.90;;;;;;5032879;28;20823;-42
2022/02/23 09:49:37;;;;;;;25.97;24.67;;;19.10;80.60;;;;;;5032541;28;20460;-40
2022/02/23 09:52:07;;;;;;;27.50;26.20;;;19.00;80.20;;;;;;5032555;28;20974;-40
2022/02/23 09:54:33;;;;;;;25.10;23.80;;;19.10;80.00;;;;;;5032644;28;20449;-40
2022/02/23 09:57:00;;;;;;;29.73;28.23;;;19.10;79.50;;;;;;5032622;28;20456;-40
2022/02/23 09:59:27;;;;;;;28.07;26.67;;;19.10;79.50;;;;;;5032261;28;20481;-40
2022/02/23 10:01:55;;;;;;;29.33;27.93;;;19.10;79.10;;;;;;5032376;28;20469;-42
2022/02/23 10:04:23;;;;;;;30.00;28.60;;;19.00;78.60;;;;;;5032400;28;20461;-40
2022/02/23 10:06:50;;;;;;;29.10;27.80;;;19.00;79.40;;;;;;5032505;28;20445;-40
2022/02/23 10:09:17;;;;;;;26.03;24.77;;;19.00;78.70;;;;;;5032261;28;20946;-41
2022/02/23 10:11:47;;;;;;;30.10;28.63;;;19.00;78.30;;;;;;5032319;28;20469;-44
2022/02/23 10:14:14;;;;;;;28.57;27.00;;;19.20;78.50;;;;;;5032351;28;20457;-40
2022/02/23 10:16:43;;;;;;;28.90;27.60;;;19.20;77.60;;;;;;5032259;28;20894;-40
2022/02/23 10:19:12;;;;;;;27.20;26.00;;;19.30;76.70;;;;;;5031941;28;20543;-40
2022/02/23 10:21:55;;;;;;;29.43;28.03;;;19.40;75.90;;;;;;5032056;28;20458;-40
2022/02/23 10:24:31;;;;;;;27.23;25.90;;;19.40;75.00;;;;;;5032206;28;20448;-40
2022/02/23 10:27:09;;;;;;;26.87;25.57;;;19.50;74.20;;;;;;5032044;28;20507;-40
2022/02/23 10:29:38;;;;;;;28.07;26.70;;;19.50;73.40;;;;;;5031794;28;20475;-40
2022/02/23 10:32:10;;;;;;;27.40;25.87;;;19.50;73.10;;;;;;5031933;28;20970;-39
2022/02/23 10:34:39;;;;;;;31.60;30.07;;;19.60;72.70;;;;;;5032114;28;21070;-40
2022/02/23 10:37:09;;;;;;;29.40;27.90;;;19.60;72.00;;;;;;5031969;28;20555;-40
2022/02/23 10:39:41;;;;;;;28.03;26.70;;;19.60;71.80;;;;;;5031608;28;20488;-40
2022/02/23 10:42:10;;;;;;;24.50;23.30;;;19.60;71.20;;;;;;5031735;28;20461;-40
2022/02/23 10:44:40;;;;;;;25.20;24.00;;;19.70;70.80;;;;;;5031916;28;20441;-40
2022/02/23 10:47:08;;;;;;;27.60;26.20;;;19.70;70.30;;;;;;5031683;28;20825;-40
2022/02/23 10:49:35;;;;;;;28.70;27.30;;;19.70;69.80;;;;;;5031788;28;20843;-40
2022/02/23 10:52:06;;;;;;;31.60;30.10;;;19.70;69.40;;;;;;5031521;28;20488;-41
2022/02/23 10:54:35;;;;;;;30.43;29.03;;;19.70;68.90;;;;;;5031754;28;20453;-40
2022/02/23 10:57:19;;;;;;;30.60;29.10;;;19.70;68.70;;;;;;5031044;28;20931;-40
2022/02/23 10:59:45;;;;;;;30.00;28.60;;;19.80;68.30;;;;;;5031456;28;20571;-40
2022/02/23 11:02:13;;;;;;;29.53;28.27;;;19.80;67.90;;;;;;5031449;28;20461;-40
2022/02/23 11:04:40;;;;;;;29.10;27.70;;;19.80;67.50;;;;;;5031563;28;20452;-40
2022/02/23 11:07:07;;;;;;;29.30;27.90;;;19.80;67.20;;;;;;5031603;28;20441;-40
2022/02/23 11:09:36;;;;;;;27.10;25.90;;;19.80;66.90;;;;;;5031381;28;20437;-41
2022/02/23 11:12:04;;;;;;;27.60;26.27;;;19.90;66.60;;;;;;5031423;28;20469;-41
2022/02/23 11:14:32;;;;;;;27.00;25.80;;;19.90;66.10;;;;;;5031618;28;20476;-40
2022/02/23 11:17:00;;;;;;;24.60;23.40;;;19.90;65.70;;;;;;5031352;28;20441;-40
2022/02/23 11:19:30;;;;;;;23.40;22.30;;;19.90;65.30;;;;;;5031301;28;20560;-40
2022/02/23 11:22:00;;;;;;;24.80;23.60;;;20.00;64.90;;;;;;5031351;28;20476;-40
2022/02/23 11:24:27;;;;;;;25.10;24.00;;;20.10;64.60;;;;;;5031633;28;20449;-40
2022/02/23 11:26:58;;;;;;;26.13;24.90;;;20.10;63.90;;;;;;5031400;28;20801;-40
2022/02/23 11:29:33;;;;;;;24.67;23.50;;;20.20;63.40;;;;;;5031094;28;20867;-42
2022/02/23 11:32:04;;;;;;;25.10;23.90;;;20.30;62.80;;;;;;5031343;28;20564;-40
2022/02/23 11:34:31;;;;;;;25.17;23.87;;;20.40;62.10;;;;;;5031389;28;20446;-41
2022/02/23 11:36:58;;;;;;;25.60;24.20;;;20.40;61.20;;;;;;5031253;28;20452;-40
2022/02/23 11:39:27;;;;;;;23.40;22.33;;;20.50;60.50;;;;;;5031115;28;20488;-42
2022/02/23 11:41:57;;;;;;;24.00;22.90;;;20.70;59.80;;;;;;5031095;28;20823;-41
2022/02/23 11:44:26;;;;;;;28.30;27.00;;;20.90;59.10;;;;;;5031289;28;20452;-40
2022/02/23 11:56:09;;;;;;;27.60;26.30;;;25.50;48.00;;;;;;5031399;28;20428;-41
2022/02/23 11:59:13;;;;;;;28.87;27.57;;;26.60;44.70;;;;;;5030878;28;20809;-41
2022/02/23 12:01:59;;;;;;;30.00;28.60;;;27.10;42.90;;;;;;5031205;28;20476;-40
2022/02/23 12:04:46;;;;;;;29.77;28.37;;;27.60;41.40;;;;;;5030988;28;20452;-41
2022/02/23 12:07:13;;;;;;;32.40;30.90;;;27.80;40.40;;;;;;5031163;28;20441;-40
2022/02/23 12:09:46;;;;;;;29.47;28.17;;;27.80;39.90;;;;;;5034200;28;20452;-41
2022/02/23 12:12:30;;;;;;;31.23;29.83;;;27.40;39.80;;;;;;5034369;28;20460;-41
2022/02/23 12:14:57;;;;;;;29.30;28.00;;;26.90;40.20;;;;;;5034555;28;20460;-40
2022/02/23 12:17:50;;;;;;;27.83;26.53;;;26.50;40.60;;;;;;5034510;28;20456;-41
2022/02/23 12:20:48;;;;;;;27.77;26.47;;;26.60;41.00;;;;;;5015528;28;20484;-41
2022/02/23 12:23:32;;;;;;;28.57;27.27;;;27.10;40.40;;;;;;5034286;28;20469;-41
2022/02/23 12:26:11;;;;;;;30.80;29.40;;;27.60;39.70;;;;;;5034415;28;20444;-41
2022/02/23 12:28:40;;;;;;;28.03;26.83;;;27.50;39.20;;;;;;5034247;28;20923;-40
2022/02/23 12:31:08;;;;;;;27.20;25.93;;;27.20;39.30;;;;;;5034245;28;20448;-41
2022/02/23 12:33:38;;;;;;;26.70;25.40;;;27.10;39.50;;;;;;5034174;28;20449;-41
2022/02/23 12:36:07;;;;;;;26.40;25.20;;;26.70;39.60;;;;;;5034237;28;20452;-41
2022/02/23 12:38:36;;;;;;;26.80;25.53;;;26.20;40.10;;;;;;5034079;28;20445;-41
2022/02/23 12:41:10;;;;;;;26.33;25.03;;;25.90;40.80;;;;;;5033971;28;20485;-41
2022/02/23 12:43:37;;;;;;;29.07;27.73;;;26.30;40.90;;;;;;5034090;28;20448;-41
2022/02/23 12:46:04;;;;;;;30.53;29.17;;;26.50;40.40;;;;;;5033951;28;20440;-40
2022/02/23 12:48:33;;;;;;;30.07;28.67;;;26.00;40.30;;;;;;5033682;28;20927;-41